Eagle — WBP2187 — position and weather

sailwx.info

Track history (hours):
 
Tides and Currents Weather Stations Pressure Air Temp Water Temp Dewpoint Dewpoint Depression Visibility Wind Speed Wind Dir Waves Ship Positions

Eagle

Owner: Harley Marine Services, INC, SEATTLE, WA. More information available from US FCC via Universal Licensing System and Coast Guard Vessel Documentation Center.

Last reported at 2015-Mar-05 09:33 UTC. Time now 2015-Mar-05 10:24 UTC.
Position N 37°55' W 122°22'.

Length 32 m; draft 4 m.

Type: Towing. MMSI: 366978690.

Date/timePositionNaut miles runAvg speedWind from/ knotsBaromVisibWave heightAir tempDewpointWater temp
2015-Mar-05 09:33N 37°55' W 122°22'0 0.0
2015-Mar-05 08:33N 37°55' W 122°22'0 0.0
2015-Mar-05 07:33N 37°55' W 122°22'0 0.0
2015-Mar-05 06:33N 37°55' W 122°22'1 0.9
2015-Mar-05 05:33N 37°54' W 122°23'4 4.2
2015-Mar-05 04:33N 37°57' W 122°26'5 5.4
2015-Mar-05 03:33N 38°02' W 122°23'6 5.8
2015-Mar-05 02:33N 38°03' W 122°16'0 0.0
2015-Mar-04 22:29N 38°03' W 122°16'0 0.0
2015-Mar-04 21:29N 38°03' W 122°16'0 0.0
2015-Mar-04 20:29N 38°03' W 122°16'0 0.0
2015-Mar-04 19:29N 38°03' W 122°16'0 0.0
2015-Mar-04 18:29N 38°03' W 122°16'0 0.0
2015-Mar-04 17:29N 38°03' W 122°16'0 0.0
2015-Mar-04 11:29N 38°03' W 122°16'0 0.0
2015-Mar-04 10:23N 38°03' W 122°16'0 0.0
2015-Mar-04 09:29N 38°03' W 122°16'0 0.0
2015-Mar-04 08:29N 38°03' W 122°16'0 0.0
2015-Mar-04 07:29N 38°03' W 122°16'0 0.0
2015-Mar-04 06:29N 38°03' W 122°16'0 0.0
2015-Mar-04 05:29N 38°03' W 122°16'0 0.0
2015-Mar-04 04:29N 38°03' W 122°16'0 0.0
2015-Mar-04 03:29N 38°03' W 122°16'0 0.0
2015-Mar-03 21:11N 38°03' W 122°16'0 0.0
2015-Mar-03 19:11N 38°03' W 122°16'0 0.0
2015-Mar-03 18:29N 38°03' W 122°16'0 0.0
2015-Mar-03 17:29N 38°03' W 122°16'0 0.0
2015-Mar-03 16:23N 38°03' W 122°16'0 0.0
2015-Mar-03 14:10N 38°03' W 122°16'0 0.0
2015-Mar-03 13:22N 38°03' W 122°16'0 0.0
2015-Mar-03 12:16N 38°03' W 122°16'0 0.0
2015-Mar-03 11:16N 38°03' W 122°16'0 0.0
2015-Mar-03 10:16N 38°03' W 122°16'0 0.0
2015-Mar-03 09:22N 38°03' W 122°16'0 0.0
2015-Mar-03 08:28N 38°03' W 122°16'0 0.0
2015-Mar-03 07:28N 38°03' W 122°16'0 0.0
2015-Mar-03 06:28N 38°03' W 122°16'0 0.0
2015-Mar-02 15:31N 38°04' W 122°15'6 4.6
2015-Mar-02 14:19N 38°02' W 122°08'0 0.5
2015-Mar-02 13:33N 38°02' W 122°08'0 0.0
2015-Mar-02 11:12N 38°02' W 122°08'0 0.0
2015-Mar-02 10:30N 38°02' W 122°08'0 0.0
2015-Mar-02 09:30N 38°02' W 122°08'0 0.0
2015-Mar-02 08:30N 38°02' W 122°08'0 0.0
2015-Mar-02 07:30N 38°02' W 122°08'0 0.0
2015-Mar-02 06:30N 38°02' W 122°08'0 0.0
2015-Mar-02 05:24N 38°02' W 122°08'0 0.0
2015-Mar-02 04:30N 38°02' W 122°08'0 0.0
2015-Mar-02 03:30N 38°02' W 122°08'0 0.0
2015-Mar-02 02:24N 38°02' W 122°08'0 0.0
2015-Mar-01 18:23N 38°02' W 122°08'0 0.0
2015-Mar-01 17:11N 38°02' W 122°08'0 0.0
2015-Mar-01 15:29N 38°02' W 122°08'0 0.1
2015-Mar-01 14:15N 38°02' W 122°08'4 4.8
2015-Mar-01 13:24N 38°04' W 122°13'2 0.1
2015-Feb-28 16:31N 38°03' W 122°16'3 2.9
2015-Feb-28 15:33N 38°03' W 122°19'8 7.9
2015-Feb-28 14:33N 37°58' W 122°27'7 7.3
2015-Feb-28 13:33N 37°51' W 122°24'6 5.9
2015-Feb-28 12:32N 37°48' W 122°31'5 4.6
2015-Feb-28 11:23N 37°46' W 122°37'3 3.0
2015-Feb-28 10:15N 37°43' W 122°40'5 4.8
2015-Feb-28 09:15N 37°39' W 122°40'55 4.7
2015-Feb-27 21:31N 36°44' W 122°28'5 4.9
2015-Feb-27 20:33N 36°40' W 122°25'8 3.9
2015-Feb-27 18:24N 36°32' W 122°21'3 4.0
2015-Feb-27 17:33N 36°29' W 122°20'4 3.7
2015-Feb-27 16:33N 36°26' W 122°18'3 3.3
2015-Feb-27 15:33N 36°23' W 122°16'3 3.0
2015-Feb-27 14:33N 36°20' W 122°14'3 3.1
2015-Feb-27 13:33N 36°17' W 122°14'3 2.9
2015-Feb-27 12:33N 36°14' W 122°13'3 2.7
2015-Feb-27 11:33N 36°12' W 122°12'3 2.6
2015-Feb-27 10:33N 36°09' W 122°11'3 2.5
2015-Feb-27 09:33N 36°07' W 122°09'3 2.6
2015-Feb-27 08:33N 36°05' W 122°08'3 2.5
2015-Feb-27 07:33N 36°02' W 122°07'3 2.6
2015-Feb-27 06:33N 35°60' W 122°06'2 2.4
2015-Feb-27 05:33N 35°58' W 122°05'2 2.2
2015-Feb-27 04:33N 35°56' W 122°04'2 2.3
2015-Feb-27 03:33N 35°53' W 122°03'2 2.0
2015-Feb-27 02:32N 35°52' W 122°02'2 2.1
2015-Feb-27 01:30N 35°50' W 122°01'2 2.1
2015-Feb-27 00:33N 35°48' W 122°00'2 2.1
2015-Feb-26 23:33N 35°46' W 121°59'3 2.7
2015-Feb-26 22:33N 35°43' W 121°58'3 2.9
2015-Feb-26 21:33N 35°41' W 121°55'3 2.9
2015-Feb-26 20:33N 35°39' W 121°53'3 3.4
2015-Feb-26 19:31N 35°36' W 121°51'4 3.9
2015-Feb-26 18:26N 35°32' W 121°48'4 4.5
2015-Feb-26 17:28N 35°29' W 121°45'5 4.7
2015-Feb-26 16:29N 35°25' W 121°42'37 4.6
2015-Feb-26 08:24N 34°54' W 121°15'4 4.5
2015-Feb-26 07:32N 34°52' W 121°12'13 4.4
2015-Feb-26 04:28N 34°40' W 121°03'4 4.3
2015-Feb-26 03:33N 34°37' W 121°01'4 4.2
2015-Feb-26 02:33N 34°34' W 120°58'4 4.4
2015-Feb-26 01:33N 34°30' W 120°55'17 5.0
2015-Feb-25 22:08N 34°23' W 120°36'3 5.4
2015-Feb-25 21:32N 34°22' W 120°32'66 7.3
2015-Feb-25 12:27N 34°04' W 119°15'10 8.3
2015-Feb-25 11:18N 33°60' W 119°05'32 7.8
2015-Feb-25 07:09N 33°44' W 118°31'5 7.9
2015-Feb-25 06:33N 33°41' W 118°26'8 7.3
2015-Feb-25 05:24N 33°39' W 118°16'4 4.3
2015-Feb-25 04:33N 33°43' W 118°15'3 2.7
2015-Feb-25 03:33N 33°45' W 118°16'0 0.0
2015-Feb-25 02:33N 33°45' W 118°16'0 0.0
2015-Feb-25 01:33N 33°45' W 118°16'0 0.0
2015-Feb-25 00:33N 33°45' W 118°16'0 0.0
2015-Feb-24 23:33N 33°45' W 118°16'0 0.0
2015-Feb-24 21:27N 33°45' W 118°16'0 0.0
2015-Feb-24 20:33N 33°45' W 118°16'0 0.0
2015-Feb-24 10:23N 33°45' W 118°16'  
Track history (hours):
 
Tides and Currents Weather Stations Pressure Air Temp Water Temp Dewpoint Dewpoint Depression Visibility Wind Speed Wind Dir Waves Ship Positions

Eagle

Owner: Harley Marine Services, INC, SEATTLE, WA. More information available from US FCC via Universal Licensing System and Coast Guard Vessel Documentation Center.

Last reported at 2015-Mar-05 09:33 UTC. Time now 2015-Mar-05 10:24 UTC.
Position N 37°55' W 122°22'.

Length 32 m; draft 4 m.

Type: Towing. MMSI: 366978690.

Date/timePositionNaut miles runAvg speedWind from/ knotsBaromVisibWave heightAir tempDewpointWater temp
2015-Mar-05 09:33N 37°55' W 122°22'0 0.0
2015-Mar-05 08:33N 37°55' W 122°22'0 0.0
2015-Mar-05 07:33N 37°55' W 122°22'0 0.0
2015-Mar-05 06:33N 37°55' W 122°22'1 0.9
2015-Mar-05 05:33N 37°54' W 122°23'4 4.2
2015-Mar-05 04:33N 37°57' W 122°26'5 5.4
2015-Mar-05 03:33N 38°02' W 122°23'6 5.8
2015-Mar-05 02:33N 38°03' W 122°16'0 0.0
2015-Mar-04 22:29N 38°03' W 122°16'0 0.0
2015-Mar-04 21:29N 38°03' W 122°16'0 0.0
2015-Mar-04 20:29N 38°03' W 122°16'0 0.0
2015-Mar-04 19:29N 38°03' W 122°16'0 0.0
2015-Mar-04 18:29N 38°03' W 122°16'0 0.0
2015-Mar-04 17:29N 38°03' W 122°16'0 0.0
2015-Mar-04 11:29N 38°03' W 122°16'0 0.0
2015-Mar-04 10:23N 38°03' W 122°16'0 0.0
2015-Mar-04 09:29N 38°03' W 122°16'0 0.0
2015-Mar-04 08:29N 38°03' W 122°16'0 0.0
2015-Mar-04 07:29N 38°03' W 122°16'0 0.0
2015-Mar-04 06:29N 38°03' W 122°16'0 0.0
2015-Mar-04 05:29N 38°03' W 122°16'0 0.0
2015-Mar-04 04:29N 38°03' W 122°16'0 0.0
2015-Mar-04 03:29N 38°03' W 122°16'0 0.0
2015-Mar-03 21:11N 38°03' W 122°16'0 0.0
2015-Mar-03 19:11N 38°03' W 122°16'0 0.0
2015-Mar-03 18:29N 38°03' W 122°16'0 0.0
2015-Mar-03 17:29N 38°03' W 122°16'0 0.0
2015-Mar-03 16:23N 38°03' W 122°16'0 0.0
2015-Mar-03 14:10N 38°03' W 122°16'0 0.0
2015-Mar-03 13:22N 38°03' W 122°16'0 0.0
2015-Mar-03 12:16N 38°03' W 122°16'0 0.0
2015-Mar-03 11:16N 38°03' W 122°16'0 0.0
2015-Mar-03 10:16N 38°03' W 122°16'0 0.0
2015-Mar-03 09:22N 38°03' W 122°16'0 0.0
2015-Mar-03 08:28N 38°03' W 122°16'0 0.0
2015-Mar-03 07:28N 38°03' W 122°16'0 0.0
2015-Mar-03 06:28N 38°03' W 122°16'0 0.0
2015-Mar-02 15:31N 38°04' W 122°15'6 4.6
2015-Mar-02 14:19N 38°02' W 122°08'0 0.5
2015-Mar-02 13:33N 38°02' W 122°08'0 0.0
2015-Mar-02 11:12N 38°02' W 122°08'0 0.0
2015-Mar-02 10:30N 38°02' W 122°08'0 0.0
2015-Mar-02 09:30N 38°02' W 122°08'0 0.0
2015-Mar-02 08:30N 38°02' W 122°08'0 0.0
2015-Mar-02 07:30N 38°02' W 122°08'0 0.0
2015-Mar-02 06:30N 38°02' W 122°08'0 0.0
2015-Mar-02 05:24N 38°02' W 122°08'0 0.0
2015-Mar-02 04:30N 38°02' W 122°08'0 0.0
2015-Mar-02 03:30N 38°02' W 122°08'0 0.0
2015-Mar-02 02:24N 38°02' W 122°08'0 0.0
2015-Mar-01 18:23N 38°02' W 122°08'0 0.0
2015-Mar-01 17:11N 38°02' W 122°08'0 0.0
2015-Mar-01 15:29N 38°02' W 122°08'0 0.1
2015-Mar-01 14:15N 38°02' W 122°08'4 4.8
2015-Mar-01 13:24N 38°04' W 122°13'2 0.1
2015-Feb-28 16:31N 38°03' W 122°16'3 2.9
2015-Feb-28 15:33N 38°03' W 122°19'8 7.9
2015-Feb-28 14:33N 37°58' W 122°27'7 7.3
2015-Feb-28 13:33N 37°51' W 122°24'6 5.9
2015-Feb-28 12:32N 37°48' W 122°31'5 4.6
2015-Feb-28 11:23N 37°46' W 122°37'3 3.0
2015-Feb-28 10:15N 37°43' W 122°40'5 4.8
2015-Feb-28 09:15N 37°39' W 122°40'55 4.7
2015-Feb-27 21:31N 36°44' W 122°28'5 4.9
2015-Feb-27 20:33N 36°40' W 122°25'8 3.9
2015-Feb-27 18:24N 36°32' W 122°21'3 4.0
2015-Feb-27 17:33N 36°29' W 122°20'4 3.7
2015-Feb-27 16:33N 36°26' W 122°18'3 3.3
2015-Feb-27 15:33N 36°23' W 122°16'3 3.0
2015-Feb-27 14:33N 36°20' W 122°14'3 3.1
2015-Feb-27 13:33N 36°17' W 122°14'3 2.9
2015-Feb-27 12:33N 36°14' W 122°13'3 2.7
2015-Feb-27 11:33N 36°12' W 122°12'3 2.6
2015-Feb-27 10:33N 36°09' W 122°11'3 2.5
2015-Feb-27 09:33N 36°07' W 122°09'3 2.6
2015-Feb-27 08:33N 36°05' W 122°08'3 2.5
2015-Feb-27 07:33N 36°02' W 122°07'3 2.6
2015-Feb-27 06:33N 35°60' W 122°06'2 2.4
2015-Feb-27 05:33N 35°58' W 122°05'2 2.2
2015-Feb-27 04:33N 35°56' W 122°04'2 2.3
2015-Feb-27 03:33N 35°53' W 122°03'2 2.0
2015-Feb-27 02:32N 35°52' W 122°02'2 2.1
2015-Feb-27 01:30N 35°50' W 122°01'2 2.1
2015-Feb-27 00:33N 35°48' W 122°00'2 2.1
2015-Feb-26 23:33N 35°46' W 121°59'3 2.7
2015-Feb-26 22:33N 35°43' W 121°58'3 2.9
2015-Feb-26 21:33N 35°41' W 121°55'3 2.9
2015-Feb-26 20:33N 35°39' W 121°53'3 3.4
2015-Feb-26 19:31N 35°36' W 121°51'4 3.9
2015-Feb-26 18:26N 35°32' W 121°48'4 4.5
2015-Feb-26 17:28N 35°29' W 121°45'5 4.7
2015-Feb-26 16:29N 35°25' W 121°42'37 4.6
2015-Feb-26 08:24N 34°54' W 121°15'4 4.5
2015-Feb-26 07:32N 34°52' W 121°12'13 4.4
2015-Feb-26 04:28N 34°40' W 121°03'4 4.3
2015-Feb-26 03:33N 34°37' W 121°01'4 4.2
2015-Feb-26 02:33N 34°34' W 120°58'4 4.4
2015-Feb-26 01:33N 34°30' W 120°55'17 5.0
2015-Feb-25 22:08N 34°23' W 120°36'3 5.4
2015-Feb-25 21:32N 34°22' W 120°32'66 7.3
2015-Feb-25 12:27N 34°04' W 119°15'10 8.3
2015-Feb-25 11:18N 33°60' W 119°05'32 7.8
2015-Feb-25 07:09N 33°44' W 118°31'5 7.9
2015-Feb-25 06:33N 33°41' W 118°26'8 7.3
2015-Feb-25 05:24N 33°39' W 118°16'4 4.3
2015-Feb-25 04:33N 33°43' W 118°15'3 2.7
2015-Feb-25 03:33N 33°45' W 118°16'0 0.0
2015-Feb-25 02:33N 33°45' W 118°16'0 0.0
2015-Feb-25 01:33N 33°45' W 118°16'0 0.0
2015-Feb-25 00:33N 33°45' W 118°16'0 0.0
2015-Feb-24 23:33N 33°45' W 118°16'0 0.0
2015-Feb-24 21:27N 33°45' W 118°16'0 0.0
2015-Feb-24 20:33N 33°45' W 118°16'0 0.0
2015-Feb-24 10:23N 33°45' W 118°16'  

Dump ship's entire track history